sensor_id;sensor_type;location;lat;lon;timestamp;P1;durP1;ratioP1;P2;durP2;ratioP2
42668;SDS011;29384;42.028;21.388;2022-10-18T00:01:50;5.05;;;4.28;;
42668;SDS011;29384;42.028;21.388;2022-10-18T00:04:16;5.47;;;4.35;;
42668;SDS011;29384;42.028;21.388;2022-10-18T00:06:41;5.55;;;5.03;;
42668;SDS011;29384;42.028;21.388;2022-10-18T00:09:06;4.55;;;4.15;;
42668;SDS011;29384;42.028;21.388;2022-10-18T00:11:32;5.57;;;4.63;;
42668;SDS011;29384;42.028;21.388;2022-10-18T00:17:00;4.63;;;4.22;;
42668;SDS011;29384;42.028;21.388;2022-10-18T00:19:25;5.63;;;4.90;;
42668;SDS011;29384;42.028;21.388;2022-10-18T00:21:51;5.45;;;4.47;;
42668;SDS011;29384;42.028;21.388;2022-10-18T00:24:16;4.85;;;4.38;;
42668;SDS011;29384;42.028;21.388;2022-10-18T00:26:41;4.82;;;4.22;;
42668;SDS011;29384;42.028;21.388;2022-10-18T00:29:09;5.88;;;5.38;;
42668;SDS011;29384;42.028;21.388;2022-10-18T00:31:37;5.18;;;4.68;;
42668;SDS011;29384;42.028;21.388;2022-10-18T00:34:03;6.63;;;6.03;;
42668;SDS011;29384;42.028;21.388;2022-10-18T00:36:30;5.28;;;4.68;;
42668;SDS011;29384;42.028;21.388;2022-10-18T00:38:55;7.63;;;4.95;;
42668;SDS011;29384;42.028;21.388;2022-10-18T00:41:25;5.80;;;5.30;;
42668;SDS011;29384;42.028;21.388;2022-10-18T00:47:01;5.60;;;5.05;;
42668;SDS011;29384;42.028;21.388;2022-10-18T00:51:55;8.00;;;6.07;;
42668;SDS011;29384;42.028;21.388;2022-10-18T00:54:20;6.25;;;3.92;;
42668;SDS011;29384;42.028;21.388;2022-10-18T00:56:47;9.38;;;5.13;;
42668;SDS011;29384;42.028;21.388;2022-10-18T01:02:15;6.60;;;4.45;;
42668;SDS011;29384;42.028;21.388;2022-10-18T01:04:42;6.25;;;4.97;;
42668;SDS011;29384;42.028;21.388;2022-10-18T01:07:19;5.18;;;4.75;;
42668;SDS011;29384;42.028;21.388;2022-10-18T01:12:24;4.65;;;4.35;;
42668;SDS011;29384;42.028;21.388;2022-10-18T01:14:57;4.40;;;4.05;;
42668;SDS011;29384;42.028;21.388;2022-10-18T01:17:50;5.70;;;4.75;;
42668;SDS011;29384;42.028;21.388;2022-10-18T01:22:46;5.38;;;4.68;;
42668;SDS011;29384;42.028;21.388;2022-10-18T01:33:22;4.68;;;3.78;;
42668;SDS011;29384;42.028;21.388;2022-10-18T01:36:00;7.15;;;4.35;;
42668;SDS011;29384;42.028;21.388;2022-10-18T01:38:28;6.38;;;4.13;;
42668;SDS011;29384;42.028;21.388;2022-10-18T01:40:54;4.97;;;4.47;;
42668;SDS011;29384;42.028;21.388;2022-10-18T01:43:20;5.40;;;4.90;;
42668;SDS011;29384;42.028;21.388;2022-10-18T01:45:47;4.40;;;4.00;;
42668;SDS011;29384;42.028;21.388;2022-10-18T01:48:12;6.15;;;4.97;;
42668;SDS011;29384;42.028;21.388;2022-10-18T01:50:38;6.22;;;4.50;;
42668;SDS011;29384;42.028;21.388;2022-10-18T01:53:03;4.88;;;4.55;;
42668;SDS011;29384;42.028;21.388;2022-10-18T01:55:50;5.18;;;4.65;;
42668;SDS011;29384;42.028;21.388;2022-10-18T01:58:19;6.78;;;3.97;;
42668;SDS011;29384;42.028;21.388;2022-10-18T02:00:45;8.77;;;5.38;;
42668;SDS011;29384;42.028;21.388;2022-10-18T02:03:20;14.38;;;5.53;;
42668;SDS011;29384;42.028;21.388;2022-10-18T02:13:20;11.38;;;5.65;;
42668;SDS011;29384;42.028;21.388;2022-10-18T02:15:47;5.18;;;4.63;;
42668;SDS011;29384;42.028;21.388;2022-10-18T02:18:15;9.32;;;3.97;;
42668;SDS011;29384;42.028;21.388;2022-10-18T02:20:42;4.95;;;4.03;;
42668;SDS011;29384;42.028;21.388;2022-10-18T02:23:09;3.60;;;3.40;;
42668;SDS011;29384;42.028;21.388;2022-10-18T02:25:34;6.22;;;3.83;;
42668;SDS011;29384;42.028;21.388;2022-10-18T02:28:01;6.63;;;4.82;;
42668;SDS011;29384;42.028;21.388;2022-10-18T02:30:29;5.47;;;3.83;;
42668;SDS011;29384;42.028;21.388;2022-10-18T02:32:56;7.55;;;4.82;;
42668;SDS011;29384;42.028;21.388;2022-10-18T02:35:24;10.85;;;4.55;;
42668;SDS011;29384;42.028;21.388;2022-10-18T02:37:51;7.13;;;4.30;;
42668;SDS011;29384;42.028;21.388;2022-10-18T02:40:17;4.45;;;4.13;;
42668;SDS011;29384;42.028;21.388;2022-10-18T02:42:45;5.68;;;4.38;;
42668;SDS011;29384;42.028;21.388;2022-10-18T02:45:11;7.13;;;4.28;;
42668;SDS011;29384;42.028;21.388;2022-10-18T02:47:37;11.30;;;4.05;;
42668;SDS011;29384;42.028;21.388;2022-10-18T02:50:02;5.88;;;4.03;;
42668;SDS011;29384;42.028;21.388;2022-10-18T02:52:28;4.95;;;4.35;;
42668;SDS011;29384;42.028;21.388;2022-10-18T02:54:53;3.53;;;3.25;;
42668;SDS011;29384;42.028;21.388;2022-10-18T02:57:18;4.35;;;3.75;;
42668;SDS011;29384;42.028;21.388;2022-10-18T03:02:46;6.75;;;3.45;;
42668;SDS011;29384;42.028;21.388;2022-10-18T03:05:13;5.03;;;4.25;;
42668;SDS011;29384;42.028;21.388;2022-10-18T03:07:38;11.15;;;4.82;;
42668;SDS011;29384;42.028;21.388;2022-10-18T03:10:03;4.85;;;3.75;;
42668;SDS011;29384;42.028;21.388;2022-10-18T03:12:29;6.75;;;4.03;;
42668;SDS011;29384;42.028;21.388;2022-10-18T03:14:54;3.28;;;3.03;;
42668;SDS011;29384;42.028;21.388;2022-10-18T03:17:19;8.77;;;3.72;;
42668;SDS011;29384;42.028;21.388;2022-10-18T03:19:45;6.35;;;4.15;;
42668;SDS011;29384;42.028;21.388;2022-10-18T03:22:10;9.40;;;4.75;;
42668;SDS011;29384;42.028;21.388;2022-10-18T03:24:35;7.97;;;4.30;;
42668;SDS011;29384;42.028;21.388;2022-10-18T03:27:00;7.72;;;4.13;;
42668;SDS011;29384;42.028;21.388;2022-10-18T03:32:29;6.45;;;3.97;;
42668;SDS011;29384;42.028;21.388;2022-10-18T03:34:55;3.60;;;3.30;;
42668;SDS011;29384;42.028;21.388;2022-10-18T03:37:20;16.85;;;4.93;;
42668;SDS011;29384;42.028;21.388;2022-10-18T03:39:46;8.43;;;5.18;;
42668;SDS011;29384;42.028;21.388;2022-10-18T03:42:11;9.30;;;3.90;;
42668;SDS011;29384;42.028;21.388;2022-10-18T03:47:39;14.07;;;4.60;;
42668;SDS011;29384;42.028;21.388;2022-10-18T03:50:04;4.35;;;3.97;;
42668;SDS011;29384;42.028;21.388;2022-10-18T03:52:30;7.78;;;3.25;;
42668;SDS011;29384;42.028;21.388;2022-10-18T03:54:55;9.38;;;3.92;;
42668;SDS011;29384;42.028;21.388;2022-10-18T03:57:20;3.78;;;3.30;;
42668;SDS011;29384;42.028;21.388;2022-10-18T04:02:48;5.35;;;4.07;;
42668;SDS011;29384;42.028;21.388;2022-10-18T04:05:13;8.93;;;3.65;;
42668;SDS011;29384;42.028;21.388;2022-10-18T04:07:39;20.50;;;4.60;;
42668;SDS011;29384;42.028;21.388;2022-10-18T04:10:04;3.35;;;2.97;;
42668;SDS011;29384;42.028;21.388;2022-10-18T04:12:30;9.93;;;4.13;;
42668;SDS011;29384;42.028;21.388;2022-10-18T04:17:58;5.20;;;3.20;;
42668;SDS011;29384;42.028;21.388;2022-10-18T04:20:23;9.75;;;3.75;;
42668;SDS011;29384;42.028;21.388;2022-10-18T04:22:49;14.13;;;4.60;;
42668;SDS011;29384;42.028;21.388;2022-10-18T04:25:14;17.35;;;4.20;;
42668;SDS011;29384;42.028;21.388;2022-10-18T04:27:40;5.20;;;2.42;;
42668;SDS011;29384;42.028;21.388;2022-10-18T04:33:08;22.88;;;4.25;;
42668;SDS011;29384;42.028;21.388;2022-10-18T04:35:33;10.77;;;3.88;;
42668;SDS011;29384;42.028;21.388;2022-10-18T04:37:58;12.40;;;4.25;;
42668;SDS011;29384;42.028;21.388;2022-10-18T04:40:24;6.25;;;3.83;;
42668;SDS011;29384;42.028;21.388;2022-10-18T04:42:49;19.90;;;4.00;;
42668;SDS011;29384;42.028;21.388;2022-10-18T04:48:17;6.03;;;3.72;;
42668;SDS011;29384;42.028;21.388;2022-10-18T04:50:42;25.40;;;5.20;;
42668;SDS011;29384;42.028;21.388;2022-10-18T04:53:08;12.80;;;3.90;;
42668;SDS011;29384;42.028;21.388;2022-10-18T04:55:33;7.15;;;4.15;;
42668;SDS011;29384;42.028;21.388;2022-10-18T04:57:59;10.25;;;4.20;;
42668;SDS011;29384;42.028;21.388;2022-10-18T05:00:24;7.25;;;3.55;;
42668;SDS011;29384;42.028;21.388;2022-10-18T05:02:49;7.15;;;3.10;;
42668;SDS011;29384;42.028;21.388;2022-10-18T05:05:19;10.90;;;3.25;;
42668;SDS011;29384;42.028;21.388;2022-10-18T05:07:44;7.28;;;3.50;;
42668;SDS011;29384;42.028;21.388;2022-10-18T05:10:10;6.95;;;4.82;;
42668;SDS011;29384;42.028;21.388;2022-10-18T05:12:35;12.60;;;3.65;;
42668;SDS011;29384;42.028;21.388;2022-10-18T05:18:03;5.47;;;3.63;;
42668;SDS011;29384;42.028;21.388;2022-10-18T05:20:28;28.63;;;4.25;;
42668;SDS011;29384;42.028;21.388;2022-10-18T05:22:53;8.77;;;4.15;;
42668;SDS011;29384;42.028;21.388;2022-10-18T05:25:19;14.38;;;5.25;;
42668;SDS011;29384;42.028;21.388;2022-10-18T05:27:44;10.02;;;4.10;;
42668;SDS011;29384;42.028;21.388;2022-10-18T05:33:12;5.75;;;4.20;;
42668;SDS011;29384;42.028;21.388;2022-10-18T05:35:37;9.13;;;4.00;;
42668;SDS011;29384;42.028;21.388;2022-10-18T05:38:03;4.72;;;4.10;;
42668;SDS011;29384;42.028;21.388;2022-10-18T05:40:30;20.52;;;3.90;;
42668;SDS011;29384;42.028;21.388;2022-10-18T05:42:55;26.38;;;5.40;;
42668;SDS011;29384;42.028;21.388;2022-10-18T05:48:23;11.73;;;5.03;;
42668;SDS011;29384;42.028;21.388;2022-10-18T05:50:48;15.48;;;4.30;;
42668;SDS011;29384;42.028;21.388;2022-10-18T05:53:14;10.68;;;5.90;;
42668;SDS011;29384;42.028;21.388;2022-10-18T05:55:39;15.55;;;7.20;;
42668;SDS011;29384;42.028;21.388;2022-10-18T05:58:04;12.80;;;5.78;;
42668;SDS011;29384;42.028;21.388;2022-10-18T06:03:46;9.77;;;7.40;;
42668;SDS011;29384;42.028;21.388;2022-10-18T06:06:11;8.05;;;7.13;;
42668;SDS011;29384;42.028;21.388;2022-10-18T06:08:38;18.75;;;6.70;;
42668;SDS011;29384;42.028;21.388;2022-10-18T06:11:10;13.23;;;6.22;;
42668;SDS011;29384;42.028;21.388;2022-10-18T06:13:39;11.80;;;5.95;;
42668;SDS011;29384;42.028;21.388;2022-10-18T06:16:05;11.65;;;7.15;;
42668;SDS011;29384;42.028;21.388;2022-10-18T06:18:30;11.00;;;6.45;;
42668;SDS011;29384;42.028;21.388;2022-10-18T06:20:56;15.02;;;5.90;;
42668;SDS011;29384;42.028;21.388;2022-10-18T06:23:22;17.95;;;5.97;;
42668;SDS011;29384;42.028;21.388;2022-10-18T06:25:47;11.10;;;5.68;;
42668;SDS011;29384;42.028;21.388;2022-10-18T06:28:12;5.60;;;4.45;;
42668;SDS011;29384;42.028;21.388;2022-10-18T06:33:40;15.55;;;6.25;;
42668;SDS011;29384;42.028;21.388;2022-10-18T06:36:07;10.88;;;5.57;;
42668;SDS011;29384;42.028;21.388;2022-10-18T06:38:33;14.93;;;6.30;;
42668;SDS011;29384;42.028;21.388;2022-10-18T06:40:58;11.27;;;6.35;;
42668;SDS011;29384;42.028;21.388;2022-10-18T06:43:24;16.42;;;8.18;;
42668;SDS011;29384;42.028;21.388;2022-10-18T06:48:52;13.60;;;6.72;;
42668;SDS011;29384;42.028;21.388;2022-10-18T06:51:18;13.27;;;7.13;;
42668;SDS011;29384;42.028;21.388;2022-10-18T06:53:44;13.13;;;6.53;;
42668;SDS011;29384;42.028;21.388;2022-10-18T06:56:10;19.13;;;7.60;;
42668;SDS011;29384;42.028;21.388;2022-10-18T06:58:36;13.30;;;7.40;;
42668;SDS011;29384;42.028;21.388;2022-10-18T07:04:04;8.77;;;6.60;;
42668;SDS011;29384;42.028;21.388;2022-10-18T07:06:29;12.18;;;6.45;;
42668;SDS011;29384;42.028;21.388;2022-10-18T07:08:55;30.48;;;7.55;;
42668;SDS011;29384;42.028;21.388;2022-10-18T07:11:22;12.43;;;6.40;;
42668;SDS011;29384;42.028;21.388;2022-10-18T07:13:51;11.70;;;6.78;;
42668;SDS011;29384;42.028;21.388;2022-10-18T07:16:18;11.70;;;6.53;;
42668;SDS011;29384;42.028;21.388;2022-10-18T07:18:48;12.77;;;6.57;;
42668;SDS011;29384;42.028;21.388;2022-10-18T07:21:14;9.38;;;6.28;;
42668;SDS011;29384;42.028;21.388;2022-10-18T07:23:41;18.40;;;7.22;;
42668;SDS011;29384;42.028;21.388;2022-10-18T07:26:11;10.60;;;5.88;;
42668;SDS011;29384;42.028;21.388;2022-10-18T07:28:37;9.27;;;5.78;;
42668;SDS011;29384;42.028;21.388;2022-10-18T07:34:05;25.05;;;6.15;;
42668;SDS011;29384;42.028;21.388;2022-10-18T07:36:30;9.30;;;6.43;;
42668;SDS011;29384;42.028;21.388;2022-10-18T07:38:55;9.02;;;5.20;;
42668;SDS011;29384;42.028;21.388;2022-10-18T07:41:21;16.05;;;6.97;;
42668;SDS011;29384;42.028;21.388;2022-10-18T07:43:47;8.55;;;5.57;;
42668;SDS011;29384;42.028;21.388;2022-10-18T07:49:15;10.02;;;6.15;;
42668;SDS011;29384;42.028;21.388;2022-10-18T07:51:41;14.73;;;5.22;;
42668;SDS011;29384;42.028;21.388;2022-10-18T07:54:07;12.13;;;5.75;;
42668;SDS011;29384;42.028;21.388;2022-10-18T07:56:32;8.30;;;5.32;;
42668;SDS011;29384;42.028;21.388;2022-10-18T07:58:57;13.90;;;4.82;;
42668;SDS011;29384;42.028;21.388;2022-10-18T08:01:23;9.57;;;5.25;;
42668;SDS011;29384;42.028;21.388;2022-10-18T08:03:49;9.02;;;4.90;;
42668;SDS011;29384;42.028;21.388;2022-10-18T08:06:15;11.75;;;5.50;;
42668;SDS011;29384;42.028;21.388;2022-10-18T08:08:42;22.10;;;5.82;;
42668;SDS011;29384;42.028;21.388;2022-10-18T08:11:09;8.07;;;5.05;;
42668;SDS011;29384;42.028;21.388;2022-10-18T08:13:35;11.05;;;5.22;;
42668;SDS011;29384;42.028;21.388;2022-10-18T08:19:03;5.15;;;3.97;;
42668;SDS011;29384;42.028;21.388;2022-10-18T08:21:28;10.48;;;3.75;;
42668;SDS011;29384;42.028;21.388;2022-10-18T08:23:53;4.05;;;3.17;;
42668;SDS011;29384;42.028;21.388;2022-10-18T08:26:20;7.72;;;5.10;;
42668;SDS011;29384;42.028;21.388;2022-10-18T08:28:45;9.50;;;3.50;;
42668;SDS011;29384;42.028;21.388;2022-10-18T08:34:14;11.70;;;3.90;;
42668;SDS011;29384;42.028;21.388;2022-10-18T08:36:39;8.00;;;4.07;;
42668;SDS011;29384;42.028;21.388;2022-10-18T08:39:04;18.90;;;5.20;;
42668;SDS011;29384;42.028;21.388;2022-10-18T08:50:06;17.95;;;6.88;;
42668;SDS011;29384;42.028;21.388;2022-10-18T08:52:43;11.23;;;5.05;;
42668;SDS011;29384;42.028;21.388;2022-10-18T08:57:47;12.80;;;6.28;;
42668;SDS011;29384;42.028;21.388;2022-10-18T09:00:26;7.15;;;5.47;;
42668;SDS011;29384;42.028;21.388;2022-10-18T09:03:06;20.92;;;7.22;;
42668;SDS011;29384;42.028;21.388;2022-10-18T09:05:43;9.63;;;6.57;;
42668;SDS011;29384;42.028;21.388;2022-10-18T09:16:59;21.10;;;8.73;;
42668;SDS011;29384;42.028;21.388;2022-10-18T09:21:30;18.88;;;7.85;;
42668;SDS011;29384;42.028;21.388;2022-10-18T09:26:26;52.15;;;8.50;;
42668;SDS011;29384;42.028;21.388;2022-10-18T09:33:53;10.68;;;5.57;;
42668;SDS011;29384;42.028;21.388;2022-10-18T09:36:20;10.13;;;5.82;;
42668;SDS011;29384;42.028;21.388;2022-10-18T09:38:54;12.73;;;7.22;;
42668;SDS011;29384;42.028;21.388;2022-10-18T09:43:50;28.63;;;11.27;;
42668;SDS011;29384;42.028;21.388;2022-10-18T09:46:17;18.27;;;10.32;;
42668;SDS011;29384;42.028;21.388;2022-10-18T09:48:54;17.92;;;9.57;;
42668;SDS011;29384;42.028;21.388;2022-10-18T09:51:22;20.17;;;10.30;;
42668;SDS011;29384;42.028;21.388;2022-10-18T09:59:09;28.25;;;11.32;;
42668;SDS011;29384;42.028;21.388;2022-10-18T10:01:36;22.95;;;11.85;;
42668;SDS011;29384;42.028;21.388;2022-10-18T10:04:01;26.65;;;12.07;;
42668;SDS011;29384;42.028;21.388;2022-10-18T10:06:27;15.20;;;9.68;;
42668;SDS011;29384;42.028;21.388;2022-10-18T10:08:54;21.83;;;10.60;;
42668;SDS011;29384;42.028;21.388;2022-10-18T10:16:57;21.92;;;10.43;;
42668;SDS011;29384;42.028;21.388;2022-10-18T10:19:23;17.38;;;9.30;;
42668;SDS011;29384;42.028;21.388;2022-10-18T10:21:51;17.60;;;8.60;;
42668;SDS011;29384;42.028;21.388;2022-10-18T10:24:20;16.90;;;9.95;;
42668;SDS011;29384;42.028;21.388;2022-10-18T10:26:45;15.38;;;7.78;;
42668;SDS011;29384;42.028;21.388;2022-10-18T10:32:01;14.30;;;7.20;;
42668;SDS011;29384;42.028;21.388;2022-10-18T10:34:27;23.58;;;6.35;;
42668;SDS011;29384;42.028;21.388;2022-10-18T10:36:53;10.98;;;7.05;;
42668;SDS011;29384;42.028;21.388;2022-10-18T10:39:19;10.95;;;7.05;;
42668;SDS011;29384;42.028;21.388;2022-10-18T10:41:46;12.00;;;7.82;;
42668;SDS011;29384;42.028;21.388;2022-10-18T10:44:18;13.82;;;6.93;;
42668;SDS011;29384;42.028;21.388;2022-10-18T10:46:44;15.52;;;6.80;;
42668;SDS011;29384;42.028;21.388;2022-10-18T10:49:38;12.73;;;6.38;;
42668;SDS011;29384;42.028;21.388;2022-10-18T10:52:06;10.68;;;5.40;;
42668;SDS011;29384;42.028;21.388;2022-10-18T10:54:42;6.10;;;4.43;;
42668;SDS011;29384;42.028;21.388;2022-10-18T10:59:44;8.90;;;4.00;;
42668;SDS011;29384;42.028;21.388;2022-10-18T11:04:34;7.28;;;4.18;;
42668;SDS011;29384;42.028;21.388;2022-10-18T11:09:36;14.23;;;5.10;;
42668;SDS011;29384;42.028;21.388;2022-10-18T11:14:38;11.95;;;5.13;;
42668;SDS011;29384;42.028;21.388;2022-10-18T11:17:08;15.43;;;5.45;;
42668;SDS011;29384;42.028;21.388;2022-10-18T11:19:38;14.93;;;4.40;;
42668;SDS011;29384;42.028;21.388;2022-10-18T11:22:05;16.63;;;4.88;;
42668;SDS011;29384;42.028;21.388;2022-10-18T11:24:34;11.45;;;4.47;;
42668;SDS011;29384;42.028;21.388;2022-10-18T11:27:18;7.45;;;4.07;;
42668;SDS011;29384;42.028;21.388;2022-10-18T11:30:00;5.65;;;4.07;;
42668;SDS011;29384;42.028;21.388;2022-10-18T11:37:57;4.88;;;3.25;;
42668;SDS011;29384;42.028;21.388;2022-10-18T11:48:30;8.88;;;3.30;;
42668;SDS011;29384;42.028;21.388;2022-10-18T11:53:46;5.88;;;2.80;;
42668;SDS011;29384;42.028;21.388;2022-10-18T11:56:19;7.03;;;2.15;;
42668;SDS011;29384;42.028;21.388;2022-10-18T12:04:33;4.63;;;2.60;;
42668;SDS011;29384;42.028;21.388;2022-10-18T12:06:58;5.28;;;2.30;;
42668;SDS011;29384;42.028;21.388;2022-10-18T12:09:26;3.65;;;2.67;;
42668;SDS011;29384;42.028;21.388;2022-10-18T12:11:54;2.47;;;2.17;;
42668;SDS011;29384;42.028;21.388;2022-10-18T12:14:25;3.65;;;2.30;;
42668;SDS011;29384;42.028;21.388;2022-10-18T12:19:55;2.95;;;2.67;;
42668;SDS011;29384;42.028;21.388;2022-10-18T12:22:26;3.00;;;2.50;;
42668;SDS011;29384;42.028;21.388;2022-10-18T12:24:52;2.85;;;2.20;;
42668;SDS011;29384;42.028;21.388;2022-10-18T12:27:17;4.20;;;2.47;;
42668;SDS011;29384;42.028;21.388;2022-10-18T12:29:54;1.33;;;1.30;;
42668;SDS011;29384;42.028;21.388;2022-10-18T12:35:25;1.90;;;1.58;;
42668;SDS011;29384;42.028;21.388;2022-10-18T12:37:57;4.00;;;2.20;;
42668;SDS011;29384;42.028;21.388;2022-10-18T12:40:37;4.45;;;2.65;;
42668;SDS011;29384;42.028;21.388;2022-10-18T12:43:06;4.22;;;2.20;;
42668;SDS011;29384;42.028;21.388;2022-10-18T12:45:33;2.50;;;1.92;;
42668;SDS011;29384;42.028;21.388;2022-10-18T12:48:00;4.50;;;2.88;;
42668;SDS011;29384;42.028;21.388;2022-10-18T12:50:30;1.85;;;1.73;;
42668;SDS011;29384;42.028;21.388;2022-10-18T12:55:33;2.28;;;1.60;;
42668;SDS011;29384;42.028;21.388;2022-10-18T12:58:01;1.38;;;1.38;;
42668;SDS011;29384;42.028;21.388;2022-10-18T13:06:06;4.43;;;2.03;;
42668;SDS011;29384;42.028;21.388;2022-10-18T13:16:03;4.13;;;1.40;;
42668;SDS011;29384;42.028;21.388;2022-10-18T13:21:42;1.60;;;1.30;;
42668;SDS011;29384;42.028;21.388;2022-10-18T13:26:46;4.85;;;1.52;;
42668;SDS011;29384;42.028;21.388;2022-10-18T13:32:05;1.52;;;1.48;;
42668;SDS011;29384;42.028;21.388;2022-10-18T13:34:39;1.38;;;1.20;;
42668;SDS011;29384;42.028;21.388;2022-10-18T13:39:33;1.60;;;1.23;;
42668;SDS011;29384;42.028;21.388;2022-10-18T13:44:31;3.75;;;1.73;;
42668;SDS011;29384;42.028;21.388;2022-10-18T13:54:59;1.48;;;1.38;;
42668;SDS011;29384;42.028;21.388;2022-10-18T14:00:23;2.95;;;2.10;;
42668;SDS011;29384;42.028;21.388;2022-10-18T14:05:56;5.68;;;1.30;;
42668;SDS011;29384;42.028;21.388;2022-10-18T14:08:28;2.08;;;1.70;;
42668;SDS011;29384;42.028;21.388;2022-10-18T14:13:42;1.88;;;1.77;;
42668;SDS011;29384;42.028;21.388;2022-10-18T14:19:15;17.52;;;2.13;;
42668;SDS011;29384;42.028;21.388;2022-10-18T14:21:42;1.25;;;1.25;;
42668;SDS011;29384;42.028;21.388;2022-10-18T14:24:13;1.27;;;1.27;;
42668;SDS011;29384;42.028;21.388;2022-10-18T14:26:39;38.80;;;3.38;;
42668;SDS011;29384;42.028;21.388;2022-10-18T14:29:05;1.75;;;1.75;;
42668;SDS011;29384;42.028;21.388;2022-10-18T14:34:33;2.15;;;2.03;;
42668;SDS011;29384;42.028;21.388;2022-10-18T14:36:59;3.67;;;2.28;;
42668;SDS011;29384;42.028;21.388;2022-10-18T14:39:25;1.83;;;1.65;;
42668;SDS011;29384;42.028;21.388;2022-10-18T14:41:53;6.28;;;2.55;;
42668;SDS011;29384;42.028;21.388;2022-10-18T14:44:20;2.83;;;2.20;;
42668;SDS011;29384;42.028;21.388;2022-10-18T14:49:48;4.50;;;2.60;;
42668;SDS011;29384;42.028;21.388;2022-10-18T14:52:15;7.22;;;2.58;;
42668;SDS011;29384;42.028;21.388;2022-10-18T14:54:40;5.90;;;2.13;;
42668;SDS011;29384;42.028;21.388;2022-10-18T14:57:06;2.75;;;2.55;;
42668;SDS011;29384;42.028;21.388;2022-10-18T14:59:42;9.57;;;3.13;;
42668;SDS011;29384;42.028;21.388;2022-10-18T15:07:40;9.98;;;2.28;;
42668;SDS011;29384;42.028;21.388;2022-10-18T15:10:05;3.50;;;3.22;;
42668;SDS011;29384;42.028;21.388;2022-10-18T15:12:32;2.15;;;2.05;;
42668;SDS011;29384;42.028;21.388;2022-10-18T15:14:59;4.03;;;2.33;;
42668;SDS011;29384;42.028;21.388;2022-10-18T15:20:29;8.50;;;2.60;;
42668;SDS011;29384;42.028;21.388;2022-10-18T15:23:19;2.20;;;2.00;;
42668;SDS011;29384;42.028;21.388;2022-10-18T15:25:41;2.33;;;2.05;;
42668;SDS011;29384;42.028;21.388;2022-10-18T15:28:15;2.97;;;2.05;;
42668;SDS011;29384;42.028;21.388;2022-10-18T15:30:42;5.15;;;2.28;;
42668;SDS011;29384;42.028;21.388;2022-10-18T15:36:16;2.80;;;2.17;;
42668;SDS011;29384;42.028;21.388;2022-10-18T15:38:43;5.77;;;2.30;;
42668;SDS011;29384;42.028;21.388;2022-10-18T15:44:04;3.85;;;1.98;;
42668;SDS011;29384;42.028;21.388;2022-10-18T15:46:30;4.03;;;2.67;;
42668;SDS011;29384;42.028;21.388;2022-10-18T15:48:57;13.52;;;3.50;;
42668;SDS011;29384;42.028;21.388;2022-10-18T15:51:47;7.70;;;3.55;;
42668;SDS011;29384;42.028;21.388;2022-10-18T15:54:16;4.75;;;3.38;;
42668;SDS011;29384;42.028;21.388;2022-10-18T15:56:42;9.50;;;3.88;;
42668;SDS011;29384;42.028;21.388;2022-10-18T16:02:12;10.95;;;4.80;;
42668;SDS011;29384;42.028;21.388;2022-10-18T16:04:39;5.95;;;3.88;;
42668;SDS011;29384;42.028;21.388;2022-10-18T16:07:05;10.10;;;3.60;;
42668;SDS011;29384;42.028;21.388;2022-10-18T16:09:30;26.60;;;3.67;;
42668;SDS011;29384;42.028;21.388;2022-10-18T16:11:55;7.13;;;3.65;;
42668;SDS011;29384;42.028;21.388;2022-10-18T16:14:22;16.45;;;3.25;;
42668;SDS011;29384;42.028;21.388;2022-10-18T16:16:49;2.63;;;2.45;;
42668;SDS011;29384;42.028;21.388;2022-10-18T16:19:15;5.40;;;2.88;;
42668;SDS011;29384;42.028;21.388;2022-10-18T16:21:46;9.60;;;2.90;;
42668;SDS011;29384;42.028;21.388;2022-10-18T16:24:12;7.93;;;3.17;;
42668;SDS011;29384;42.028;21.388;2022-10-18T16:26:37;7.50;;;2.88;;
42668;SDS011;29384;42.028;21.388;2022-10-18T16:29:03;7.28;;;2.13;;
42668;SDS011;29384;42.028;21.388;2022-10-18T16:31:30;7.30;;;3.22;;
42668;SDS011;29384;42.028;21.388;2022-10-18T16:36:58;3.10;;;2.83;;
42668;SDS011;29384;42.028;21.388;2022-10-18T16:39:23;12.15;;;2.45;;
42668;SDS011;29384;42.028;21.388;2022-10-18T16:41:49;5.80;;;2.75;;
42668;SDS011;29384;42.028;21.388;2022-10-18T16:44:15;4.53;;;3.08;;
42668;SDS011;29384;42.028;21.388;2022-10-18T16:46:41;2.03;;;1.90;;
42668;SDS011;29384;42.028;21.388;2022-10-18T16:49:10;6.53;;;2.17;;
42668;SDS011;29384;42.028;21.388;2022-10-18T16:51:41;3.38;;;2.53;;
42668;SDS011;29384;42.028;21.388;2022-10-18T16:54:06;3.90;;;3.55;;
42668;SDS011;29384;42.028;21.388;2022-10-18T16:56:32;5.50;;;2.60;;
42668;SDS011;29384;42.028;21.388;2022-10-18T16:58:58;13.88;;;3.20;;
42668;SDS011;29384;42.028;21.388;2022-10-18T17:01:23;7.60;;;3.30;;
42668;SDS011;29384;42.028;21.388;2022-10-18T17:06:52;8.73;;;2.60;;
42668;SDS011;29384;42.028;21.388;2022-10-18T17:09:18;11.70;;;3.33;;
42668;SDS011;29384;42.028;21.388;2022-10-18T17:11:43;9.68;;;3.40;;
42668;SDS011;29384;42.028;21.388;2022-10-18T17:14:08;2.83;;;2.63;;
42668;SDS011;29384;42.028;21.388;2022-10-18T17:16:34;3.53;;;3.20;;
42668;SDS011;29384;42.028;21.388;2022-10-18T17:22:03;2.90;;;2.67;;
42668;SDS011;29384;42.028;21.388;2022-10-18T17:24:28;11.80;;;3.35;;
42668;SDS011;29384;42.028;21.388;2022-10-18T17:26:54;4.03;;;3.30;;
42668;SDS011;29384;42.028;21.388;2022-10-18T17:29:19;5.25;;;2.53;;
42668;SDS011;29384;42.028;21.388;2022-10-18T17:31:44;6.45;;;3.53;;
42668;SDS011;29384;42.028;21.388;2022-10-18T17:37:12;3.35;;;3.05;;
42668;SDS011;29384;42.028;21.388;2022-10-18T17:39:38;4.78;;;3.10;;
42668;SDS011;29384;42.028;21.388;2022-10-18T17:42:03;16.42;;;2.90;;
42668;SDS011;29384;42.028;21.388;2022-10-18T17:44:28;7.35;;;2.85;;
42668;SDS011;29384;42.028;21.388;2022-10-18T17:46:54;8.00;;;3.03;;
42668;SDS011;29384;42.028;21.388;2022-10-18T17:52:21;7.57;;;3.83;;
42668;SDS011;29384;42.028;21.388;2022-10-18T17:54:47;4.32;;;2.55;;
42668;SDS011;29384;42.028;21.388;2022-10-18T17:57:12;8.02;;;4.03;;
42668;SDS011;29384;42.028;21.388;2022-10-18T17:59:37;3.80;;;3.00;;
42668;SDS011;29384;42.028;21.388;2022-10-18T18:02:03;2.78;;;2.60;;
42668;SDS011;29384;42.028;21.388;2022-10-18T18:07:31;8.05;;;4.30;;
42668;SDS011;29384;42.028;21.388;2022-10-18T18:09:57;4.70;;;3.35;;
42668;SDS011;29384;42.028;21.388;2022-10-18T18:12:22;5.97;;;2.90;;
42668;SDS011;29384;42.028;21.388;2022-10-18T18:14:47;7.65;;;4.55;;
42668;SDS011;29384;42.028;21.388;2022-10-18T18:23:18;6.50;;;3.00;;
42668;SDS011;29384;42.028;21.388;2022-10-18T18:25:46;10.98;;;4.38;;
42668;SDS011;29384;42.028;21.388;2022-10-18T18:28:18;4.22;;;3.92;;
42668;SDS011;29384;42.028;21.388;2022-10-18T18:30:43;10.90;;;4.03;;
42668;SDS011;29384;42.028;21.388;2022-10-18T18:33:08;7.25;;;4.43;;
42668;SDS011;29384;42.028;21.388;2022-10-18T18:35:34;7.18;;;4.47;;
42668;SDS011;29384;42.028;21.388;2022-10-18T18:37:59;6.20;;;3.53;;
42668;SDS011;29384;42.028;21.388;2022-10-18T18:40:24;6.03;;;3.75;;
42668;SDS011;29384;42.028;21.388;2022-10-18T18:42:50;4.78;;;4.07;;
42668;SDS011;29384;42.028;21.388;2022-10-18T18:45:15;5.85;;;4.97;;
42668;SDS011;29384;42.028;21.388;2022-10-18T18:47:40;5.40;;;4.10;;
42668;SDS011;29384;42.028;21.388;2022-10-18T18:50:06;3.13;;;2.92;;
42668;SDS011;29384;42.028;21.388;2022-10-18T18:52:31;6.03;;;3.35;;
42668;SDS011;29384;42.028;21.388;2022-10-18T18:54:57;5.50;;;4.25;;
42668;SDS011;29384;42.028;21.388;2022-10-18T18:57:22;3.67;;;3.17;;
42668;SDS011;29384;42.028;21.388;2022-10-18T18:59:47;4.55;;;3.30;;